createdAt,value
2022-11-17T00:00:36.994Z,54.70
2022-11-17T00:03:03.538Z,48.43
2022-11-17T00:05:30.011Z,54.87
2022-11-17T00:07:56.492Z,49.87
2022-11-17T00:10:22.966Z,50.17
2022-11-17T00:13:07.878Z,44.20
2022-11-17T00:15:34.395Z,49.37
2022-11-17T00:18:19.571Z,49.77
2022-11-17T00:21:04.516Z,51.90
2022-11-17T00:23:46.103Z,56.23
2022-11-17T00:26:30.759Z,51.63
2022-11-17T00:29:06.185Z,46.27
2022-11-17T00:31:52.295Z,39.47
2022-11-17T00:34:21.475Z,43.60
2022-11-17T00:36:53.726Z,43.60
2022-11-17T00:39:23.022Z,44.83
2022-11-17T00:41:50.015Z,42.40
2022-11-17T00:44:16.593Z,41.90
2022-11-17T00:46:43.354Z,43.73
2022-11-17T00:49:11.475Z,42.60
2022-11-17T00:51:38.586Z,44.97
2022-11-17T00:54:07.099Z,43.43
2022-11-17T00:56:33.829Z,40.77
2022-11-17T00:59:00.441Z,33.93
2022-11-17T01:01:27.680Z,34.50
2022-11-17T01:04:01.951Z,29.53
2022-11-17T01:06:37.359Z,32.70
2022-11-17T01:09:21.448Z,40.33
2022-11-17T01:11:51.160Z,32.17
2022-11-17T01:14:22.134Z,36.50
2022-11-17T01:16:48.676Z,35.97
2022-11-17T01:19:16.626Z,25.57
2022-11-17T01:21:43.452Z,25.93
2022-11-17T01:24:11.777Z,25.67
2022-11-17T01:26:40.270Z,20.63
2022-11-17T01:29:10.077Z,21.60
2022-11-17T01:31:42.485Z,19.40
2022-11-17T01:34:09.792Z,24.93
2022-11-17T01:36:58.977Z,20.30
2022-11-17T01:39:28.228Z,23.87
2022-11-17T01:41:58.049Z,22.77
2022-11-17T01:46:44.375Z,20.43
2022-11-17T01:49:21.919Z,20.77
2022-11-17T01:52:02.838Z,19.97
2022-11-17T01:54:32.188Z,19.57
2022-11-17T01:57:09.487Z,16.23
2022-11-17T01:59:51.100Z,16.70
2022-11-17T02:02:19.256Z,13.87
2022-11-17T02:05:03.974Z,15.77
2022-11-17T02:07:35.894Z,13.47
2022-11-17T02:10:04.334Z,13.87
2022-11-17T02:12:34.615Z,15.20
2022-11-17T02:15:03.076Z,13.80
2022-11-17T02:17:40.105Z,13.37
2022-11-17T02:20:16.509Z,12.80
2022-11-17T02:25:51.172Z,12.97
2022-11-17T02:28:31.037Z,14.27
2022-11-17T02:33:36.205Z,10.27
2022-11-17T02:36:22.299Z,11.40
2022-11-17T02:39:19.218Z,9.43
2022-11-17T02:41:57.699Z,8.57
2022-11-17T02:44:56.866Z,9.30
2022-11-17T02:47:31.761Z,10.17
2022-11-17T02:50:09.655Z,9.53
2022-11-17T02:52:36.795Z,9.70
2022-11-17T02:55:09.976Z,7.73
2022-11-17T02:57:39.740Z,6.83
2022-11-17T03:00:14.049Z,10.23
2022-11-17T03:05:15.872Z,13.27
2022-11-17T03:09:24.884Z,9.43
2022-11-17T03:12:15.680Z,7.73
2022-11-17T03:15:22.918Z,6.33
2022-11-17T03:18:34.527Z,9.10
2022-11-17T03:23:59.079Z,6.97
2022-11-17T03:26:33.229Z,6.43
2022-11-17T03:29:01.894Z,8.43
2022-11-17T03:31:32.045Z,7.43
2022-11-17T03:34:03.153Z,8.27
2022-11-17T03:36:39.325Z,10.10
2022-11-17T03:39:22.969Z,8.63
2022-11-17T03:41:56.686Z,8.17
2022-11-17T03:44:28.547Z,8.33
2022-11-17T03:46:58.711Z,8.07
2022-11-17T03:49:46.825Z,6.33
2022-11-17T03:52:13.428Z,8.27
2022-11-17T03:54:40.952Z,5.80
2022-11-17T03:58:16.276Z,6.07
2022-11-17T04:00:45.889Z,4.23
2022-11-17T04:03:12.449Z,4.67
2022-11-17T04:05:38.901Z,7.13
2022-11-17T04:08:05.554Z,8.40
2022-11-17T04:12:34.855Z,4.73
2022-11-17T04:15:19.817Z,4.10
2022-11-17T04:17:46.384Z,4.70
2022-11-17T04:20:12.855Z,6.67
2022-11-17T04:22:39.294Z,4.90
2022-11-17T04:25:06.148Z,7.17
2022-11-17T04:27:50.777Z,8.37
2022-11-17T04:30:17.265Z,10.43
2022-11-17T04:32:43.735Z,10.70
2022-11-17T04:35:10.168Z,10.87
2022-11-17T04:37:36.700Z,10.53
2022-11-17T04:40:03.892Z,5.97
2022-11-17T04:42:30.348Z,8.93
2022-11-17T04:44:56.821Z,8.67
2022-11-17T04:47:23.271Z,7.43
2022-11-17T04:49:49.736Z,26.40
2022-11-17T04:52:16.204Z,6.77
2022-11-17T04:54:42.648Z,7.47
2022-11-17T04:57:09.120Z,13.53
2022-11-17T04:59:35.961Z,7.77
2022-11-17T05:02:05.891Z,7.50
2022-11-17T05:04:51.283Z,5.47
2022-11-17T05:07:17.798Z,10.47
2022-11-17T05:09:44.342Z,11.10
2022-11-17T05:12:28.854Z,13.13
2022-11-17T05:14:55.311Z,12.67
2022-11-17T05:17:21.759Z,15.57
2022-11-17T05:19:48.505Z,12.13
2022-11-17T05:22:39.042Z,10.53
2022-11-17T05:25:06.755Z,7.63
2022-11-17T05:27:34.138Z,10.80
2022-11-17T05:30:07.022Z,10.37
2022-11-17T05:32:33.476Z,10.50
2022-11-17T05:34:59.943Z,8.27
2022-11-17T05:37:26.402Z,27.10
2022-11-17T05:39:52.898Z,24.10
2022-11-17T05:42:19.429Z,24.23
2022-11-17T05:44:47.604Z,13.03
2022-11-17T05:47:14.051Z,10.67
2022-11-17T05:49:40.524Z,11.27
2022-11-17T05:52:06.988Z,18.77
2022-11-17T05:54:33.466Z,36.17
2022-11-17T05:57:08.866Z,18.33
2022-11-17T05:59:53.439Z,23.07
2022-11-17T06:02:33.382Z,20.00
2022-11-17T06:04:59.947Z,25.10
2022-11-17T06:07:26.474Z,15.33
2022-11-17T06:09:54.245Z,45.47
2022-11-17T06:12:20.737Z,30.20
2022-11-17T06:14:47.191Z,10.77
2022-11-17T06:17:37.056Z,9.77
2022-11-17T06:20:13.372Z,15.07
2022-11-17T06:22:42.909Z,19.50
2022-11-17T06:25:14.049Z,28.03
2022-11-17T06:27:41.026Z,43.33
2022-11-17T06:30:08.131Z,100.23
2022-11-17T06:32:39.001Z,117.07
2022-11-17T06:35:10.128Z,63.27
2022-11-17T06:37:36.758Z,30.83
2022-11-17T06:40:04.342Z,25.73
2022-11-17T06:42:49.104Z,27.23
2022-11-17T06:45:15.661Z,39.27
2022-11-17T06:47:42.117Z,40.27
2022-11-17T06:50:09.163Z,52.90
2022-11-17T06:52:35.610Z,43.43
2022-11-17T06:55:02.051Z,57.43
2022-11-17T06:57:29.709Z,61.97
2022-11-17T06:59:56.218Z,42.97
2022-11-17T07:02:22.691Z,59.13
2022-11-17T07:04:49.144Z,23.90
2022-11-17T07:07:15.720Z,29.67
2022-11-17T07:09:42.278Z,35.43
2022-11-17T07:12:08.846Z,26.97
2022-11-17T07:14:35.374Z,21.50
2022-11-17T07:17:01.840Z,25.37
2022-11-17T07:19:28.315Z,22.23
2022-11-17T07:21:54.802Z,19.90
2022-11-17T07:24:21.274Z,18.30
2022-11-17T07:26:47.796Z,23.17
2022-11-17T07:29:14.252Z,24.77
2022-11-17T07:31:40.725Z,16.10
2022-11-17T07:34:07.289Z,17.33
2022-11-17T07:36:33.779Z,18.03
2022-11-17T07:39:00.222Z,26.93
2022-11-17T07:41:26.685Z,25.83
2022-11-17T07:43:53.140Z,22.93
2022-11-17T07:46:19.619Z,12.60
2022-11-17T07:48:46.068Z,11.73
2022-11-17T07:51:13.301Z,14.73
2022-11-17T07:53:39.798Z,17.93
2022-11-17T07:56:10.137Z,10.07
2022-11-17T07:58:38.129Z,13.00
2022-11-17T08:01:14.403Z,10.07
2022-11-17T08:03:42.153Z,16.80
2022-11-17T08:06:09.244Z,14.40
2022-11-17T08:08:37.576Z,11.70
2022-11-17T08:11:11.233Z,7.83
2022-11-17T08:13:39.989Z,10.00
2022-11-17T08:16:08.658Z,9.00
2022-11-17T08:18:36.129Z,9.20
2022-11-17T08:21:13.126Z,11.07
2022-11-17T08:23:40.944Z,10.47
2022-11-17T08:26:10.932Z,11.67
2022-11-17T08:28:40.798Z,7.53
2022-11-17T08:31:07.871Z,9.07
2022-11-17T08:33:35.229Z,9.57
2022-11-17T08:36:07.103Z,11.63
2022-11-17T08:38:35.615Z,17.13
2022-11-17T08:41:06.775Z,16.93
2022-11-17T08:43:34.527Z,17.47
2022-11-17T08:46:01.845Z,22.43
2022-11-17T08:48:28.937Z,22.13
2022-11-17T08:50:55.451Z,18.43
2022-11-17T08:53:23.101Z,19.00
2022-11-17T08:55:51.005Z,21.27
2022-11-17T08:58:17.489Z,21.47
2022-11-17T09:00:45.959Z,21.43
2022-11-17T09:03:12.746Z,21.67
2022-11-17T09:05:46.453Z,20.07
2022-11-17T09:11:12.141Z,36.13
2022-11-17T09:13:39.392Z,31.90
2022-11-17T09:16:11.149Z,31.03
2022-11-17T09:18:41.650Z,36.17
2022-11-17T09:21:14.886Z,25.63
2022-11-17T09:23:42.221Z,23.80
2022-11-17T09:26:13.048Z,23.03
2022-11-17T09:28:40.924Z,24.57
2022-11-17T09:31:20.068Z,25.13
2022-11-17T09:33:46.863Z,18.80
2022-11-17T09:36:16.953Z,21.87
2022-11-17T09:38:43.975Z,20.77
2022-11-17T09:42:39.432Z,21.00
2022-11-17T09:45:20.335Z,21.80
2022-11-17T09:48:51.570Z,14.33
2022-11-17T09:51:23.717Z,24.60
2022-11-17T09:54:07.732Z,16.77
2022-11-17T09:56:34.708Z,21.83
2022-11-17T09:59:12.844Z,17.90
2022-11-17T10:01:39.462Z,18.57
2022-11-17T10:04:16.154Z,21.57
2022-11-17T10:06:50.284Z,17.20
2022-11-17T10:09:42.610Z,16.33
2022-11-17T10:12:23.553Z,16.23
2022-11-17T10:14:51.442Z,17.20
2022-11-17T10:17:18.183Z,17.53
2022-11-17T10:19:45.337Z,19.20
2022-11-17T10:22:42.619Z,17.17
2022-11-17T10:25:40.919Z,24.73
2022-11-17T10:28:23.227Z,24.23
2022-11-17T10:31:09.792Z,21.17
2022-11-17T10:33:48.865Z,18.57
2022-11-17T10:36:30.480Z,17.43
2022-11-17T10:38:59.744Z,17.80
2022-11-17T10:41:40.487Z,18.50
2022-11-17T10:44:29.049Z,15.80
2022-11-17T10:47:07.314Z,15.13
2022-11-17T10:49:39.616Z,17.83
2022-11-17T10:52:17.971Z,16.87
2022-11-17T10:54:44.774Z,18.60
2022-11-17T10:57:24.231Z,14.07
2022-11-17T10:59:58.567Z,17.07
2022-11-17T11:02:45.373Z,16.07
2022-11-17T11:05:18.099Z,13.93
2022-11-17T11:07:44.990Z,16.57
2022-11-17T11:10:29.393Z,18.53
2022-11-17T11:15:33.570Z,18.40
2022-11-17T11:18:00.219Z,16.30
2022-11-17T11:21:42.638Z,17.40
2022-11-17T11:25:59.873Z,17.90
2022-11-17T11:30:11.130Z,10.67
2022-11-17T11:37:15.110Z,12.43
2022-11-17T11:40:14.280Z,14.87
2022-11-17T11:45:26.013Z,12.13
2022-11-17T11:50:49.049Z,16.50
2022-11-17T11:54:00.967Z,18.40
2022-11-17T11:56:38.423Z,13.50
2022-11-17T11:59:20.415Z,17.50
2022-11-17T12:06:39.344Z,13.73
2022-11-17T12:12:00.250Z,13.67
2022-11-17T12:14:32.709Z,10.87
2022-11-17T12:17:22.669Z,10.47
2022-11-17T12:19:59.026Z,11.83
2022-11-17T12:23:59.920Z,15.33
2022-11-17T12:26:30.894Z,17.23
2022-11-17T12:29:28.489Z,16.13
2022-11-17T12:32:01.130Z,19.17
2022-11-17T12:34:36.403Z,16.80
2022-11-17T12:37:22.211Z,20.87
2022-11-17T12:40:40.843Z,19.33
2022-11-17T12:48:33.351Z,25.17
2022-11-17T12:51:51.679Z,15.50
2022-11-17T12:57:31.920Z,17.77
2022-11-17T13:00:21.323Z,18.73
2022-11-17T13:03:15.796Z,17.00
2022-11-17T13:05:42.412Z,18.17
2022-11-17T13:08:23.063Z,22.70
2022-11-17T13:10:50.825Z,20.03
2022-11-17T13:13:23.932Z,20.27
2022-11-17T13:15:55.117Z,14.87
2022-11-17T13:18:39.579Z,16.97
2022-11-17T13:21:31.622Z,19.67
2022-11-17T13:23:59.745Z,16.27
2022-11-17T13:26:37.197Z,19.47
2022-11-17T13:29:18.516Z,16.47
2022-11-17T13:31:45.897Z,22.40
2022-11-17T13:34:21.463Z,22.90
2022-11-17T13:37:00.888Z,16.10
2022-11-17T13:39:28.235Z,15.23
2022-11-17T13:41:57.354Z,19.07
2022-11-17T13:44:26.840Z,16.40
2022-11-17T13:46:53.361Z,14.27
2022-11-17T13:49:38.858Z,13.57
2022-11-17T13:54:30.803Z,15.50
2022-11-17T13:57:07.301Z,13.23
2022-11-17T13:59:38.692Z,15.50
2022-11-17T14:06:50.979Z,14.43
2022-11-17T14:09:18.809Z,14.90
2022-11-17T14:11:45.518Z,16.43
2022-11-17T14:14:14.689Z,16.13
2022-11-17T14:16:41.723Z,20.93
2022-11-17T14:22:31.969Z,18.47
2022-11-17T14:24:58.585Z,14.40
2022-11-17T14:27:42.909Z,15.90
2022-11-17T14:30:12.704Z,16.33
2022-11-17T14:32:39.495Z,20.57
2022-11-17T14:35:07.179Z,21.73
2022-11-17T14:37:33.697Z,18.00
2022-11-17T14:40:02.962Z,19.33
2022-11-17T14:42:34.711Z,21.53
2022-11-17T14:45:03.075Z,20.17
2022-11-17T14:47:29.605Z,19.47
2022-11-17T14:49:56.070Z,18.77
2022-11-17T14:52:22.547Z,17.77
2022-11-17T14:54:49.028Z,19.50
2022-11-17T14:57:15.545Z,16.33
2022-11-17T14:59:42.068Z,21.37
2022-11-17T15:02:11.034Z,17.63
2022-11-17T15:04:55.556Z,19.67
2022-11-17T15:07:22.711Z,18.97
2022-11-17T15:09:49.281Z,17.00
2022-11-17T15:12:15.828Z,21.43
2022-11-17T15:14:42.451Z,18.90
2022-11-17T15:17:13.835Z,20.20
2022-11-17T15:19:41.076Z,31.40
2022-11-17T15:22:07.715Z,16.20
2022-11-17T15:24:34.201Z,14.93
2022-11-17T15:27:00.689Z,15.23
2022-11-17T15:29:27.144Z,16.63
2022-11-17T15:31:53.703Z,14.27
2022-11-17T15:34:20.772Z,18.57
2022-11-17T15:36:48.590Z,18.40
2022-11-17T15:39:15.727Z,16.33
2022-11-17T15:41:42.807Z,18.77
2022-11-17T15:44:09.551Z,14.73
2022-11-17T15:46:36.116Z,13.90
2022-11-17T15:49:02.742Z,12.53
2022-11-17T15:51:29.324Z,20.03
2022-11-17T15:53:58.867Z,16.27
2022-11-17T15:56:36.129Z,17.93
2022-11-17T15:59:05.262Z,18.43
2022-11-17T16:01:37.441Z,15.73
2022-11-17T16:04:17.204Z,17.23
2022-11-17T16:06:46.179Z,15.53
2022-11-17T16:09:14.236Z,13.70
2022-11-17T16:11:41.089Z,13.77
2022-11-17T16:14:08.290Z,13.40
2022-11-17T16:16:37.825Z,22.50
2022-11-17T16:19:05.449Z,16.87
2022-11-17T16:21:31.993Z,22.60
2022-11-17T16:24:00.104Z,19.17
2022-11-17T16:26:28.391Z,16.57
2022-11-17T16:29:01.014Z,23.90
2022-11-17T16:31:31.059Z,22.13
2022-11-17T16:34:09.913Z,23.70
2022-11-17T16:36:39.841Z,15.30
2022-11-17T16:39:17.067Z,16.30
2022-11-17T16:41:45.323Z,18.27
2022-11-17T16:44:15.541Z,16.67
2022-11-17T16:46:48.916Z,25.33
2022-11-17T16:49:18.787Z,28.50
2022-11-17T16:51:51.767Z,14.90
2022-11-17T16:54:19.560Z,16.27
2022-11-17T16:56:46.304Z,15.87
2022-11-17T16:59:13.131Z,17.07
2022-11-17T17:01:39.689Z,17.33
2022-11-17T17:04:09.382Z,18.37
2022-11-17T17:06:39.223Z,21.20
2022-11-17T17:09:08.949Z,20.50
2022-11-17T17:11:36.713Z,25.10
2022-11-17T17:14:06.022Z,20.27
2022-11-17T17:16:34.968Z,18.07
2022-11-17T17:19:04.908Z,18.03
2022-11-17T17:21:32.509Z,20.03
2022-11-17T17:23:59.728Z,15.63
2022-11-17T17:26:29.777Z,20.87
2022-11-17T17:28:59.470Z,16.90
2022-11-17T17:31:31.561Z,16.10
2022-11-17T17:34:01.376Z,17.40
2022-11-17T17:36:28.520Z,18.20
2022-11-17T17:38:58.184Z,20.03
2022-11-17T17:41:28.487Z,18.17
2022-11-17T17:44:05.092Z,19.73
2022-11-17T17:46:37.178Z,19.63
2022-11-17T17:49:04.651Z,17.50
2022-11-17T17:51:31.146Z,24.50
2022-11-17T17:54:01.297Z,21.60
2022-11-17T17:56:29.671Z,24.93
2022-11-17T17:58:57.287Z,23.13
2022-11-17T18:01:27.460Z,20.93
2022-11-17T18:04:03.721Z,30.30
2022-11-17T18:06:40.690Z,33.23
2022-11-17T18:09:09.964Z,28.10
2022-11-17T18:11:37.029Z,24.10
2022-11-17T18:14:04.198Z,24.60
2022-11-17T18:16:32.942Z,24.87
2022-11-17T18:19:03.355Z,30.70
2022-11-17T18:21:30.625Z,37.50
2022-11-17T18:23:59.878Z,36.67
2022-11-17T18:26:33.087Z,41.17
2022-11-17T18:29:12.622Z,39.47
2022-11-17T18:31:39.112Z,39.27
2022-11-17T18:34:20.214Z,41.57
2022-11-17T18:36:48.346Z,36.60
2022-11-17T18:39:15.871Z,32.13
2022-11-17T18:41:43.265Z,31.23
2022-11-17T18:44:18.677Z,30.63
2022-11-17T18:46:45.881Z,19.93
2022-11-17T18:49:12.404Z,15.97
2022-11-17T18:51:38.897Z,15.57
2022-11-17T18:54:05.421Z,18.57
2022-11-17T18:56:35.137Z,15.20
2022-11-17T18:59:02.161Z,16.30
2022-11-17T19:01:29.924Z,21.17
2022-11-17T19:04:00.288Z,15.63
2022-11-17T19:06:27.123Z,19.30
2022-11-17T19:08:54.368Z,19.00
2022-11-17T19:11:22.912Z,18.60
2022-11-17T19:13:49.689Z,20.90
2022-11-17T19:16:25.395Z,19.83
2022-11-17T19:18:55.384Z,20.20
2022-11-17T19:21:32.898Z,19.87
2022-11-17T19:24:02.767Z,24.07
2022-11-17T19:26:32.642Z,24.27
2022-11-17T19:29:02.870Z,21.60
2022-11-17T19:31:29.947Z,20.23
2022-11-17T19:33:57.456Z,20.33
2022-11-17T19:36:28.605Z,22.53
2022-11-17T19:38:57.463Z,26.30
2022-11-17T19:41:30.759Z,19.47
2022-11-17T19:44:00.510Z,17.63
2022-11-17T19:46:28.302Z,18.23
2022-11-17T19:48:56.410Z,20.80
2022-11-17T19:51:31.646Z,19.20
2022-11-17T19:54:04.632Z,18.37
2022-11-17T19:56:31.266Z,20.33
2022-11-17T19:58:57.850Z,21.43
2022-11-17T20:01:27.258Z,19.27
2022-11-17T20:03:55.675Z,21.33
2022-11-17T20:06:26.589Z,24.57
2022-11-17T20:08:53.762Z,23.33
2022-11-17T20:11:26.522Z,22.73
2022-11-17T20:13:55.074Z,22.20
2022-11-17T20:16:26.284Z,20.67
2022-11-17T20:18:57.936Z,22.50
2022-11-17T20:21:30.087Z,23.07
2022-11-17T20:23:58.493Z,18.47
2022-11-17T20:26:28.678Z,21.20
2022-11-17T20:28:56.511Z,25.67
2022-11-17T20:31:26.210Z,27.00
2022-11-17T20:33:56.854Z,20.13
2022-11-17T20:36:23.977Z,16.13
2022-11-17T20:38:55.181Z,19.30
2022-11-17T20:41:22.571Z,44.40
2022-11-17T20:43:51.899Z,44.50
2022-11-17T20:46:19.605Z,21.87
2022-11-17T20:48:47.043Z,21.90
2022-11-17T20:51:19.908Z,24.47
2022-11-17T20:53:46.627Z,27.93
2022-11-17T20:56:15.681Z,30.77
2022-11-17T20:58:43.169Z,85.03
2022-11-17T21:01:16.182Z,35.33
2022-11-17T21:03:43.115Z,27.90
2022-11-17T21:06:10.370Z,37.17
2022-11-17T21:08:39.319Z,35.20
2022-11-17T21:11:09.936Z,26.43
2022-11-17T21:13:37.051Z,24.17
2022-11-17T21:16:13.973Z,22.23
2022-11-17T21:18:47.321Z,19.37
2022-11-17T21:21:15.036Z,26.33
2022-11-17T21:23:43.186Z,29.20
2022-11-17T21:26:18.399Z,25.17
2022-11-17T21:28:46.006Z,25.90
2022-11-17T21:31:28.184Z,25.13
2022-11-17T21:34:01.286Z,30.40
2022-11-17T21:36:30.448Z,43.40
2022-11-17T21:38:57.792Z,41.00
2022-11-17T21:41:34.570Z,29.83
2022-11-17T21:44:02.847Z,31.47
2022-11-17T21:46:32.708Z,22.67
2022-11-17T21:49:00.532Z,23.53
2022-11-17T21:51:37.528Z,18.00
2022-11-17T21:54:08.180Z,21.73
2022-11-17T21:56:35.400Z,26.33
2022-11-17T21:59:10.566Z,23.03
2022-11-17T22:01:37.868Z,29.57
2022-11-17T22:04:04.586Z,30.03
2022-11-17T22:06:31.579Z,28.33
2022-11-17T22:08:59.333Z,22.90
2022-11-17T22:11:34.776Z,19.40
2022-11-17T22:14:22.794Z,22.90
2022-11-17T22:16:52.047Z,23.57
2022-11-17T22:19:21.130Z,22.73
2022-11-17T22:21:51.014Z,22.53
2022-11-17T22:24:18.690Z,25.07
2022-11-17T22:26:45.758Z,25.90
2022-11-17T22:29:19.385Z,23.83
2022-11-17T22:31:47.879Z,27.00
2022-11-17T22:34:15.075Z,23.73
2022-11-17T22:36:41.614Z,27.43
2022-11-17T22:39:08.616Z,34.10
2022-11-17T22:41:35.144Z,28.43
2022-11-17T22:44:02.058Z,44.20
2022-11-17T22:46:28.703Z,21.83
2022-11-17T22:48:55.463Z,23.17
2022-11-17T22:51:40.395Z,50.50
2022-11-17T22:54:07.874Z,21.90
2022-11-17T22:56:35.395Z,25.33
2022-11-17T22:59:01.986Z,25.57
2022-11-17T23:01:28.859Z,27.90
2022-11-17T23:03:55.381Z,39.83
2022-11-17T23:06:21.995Z,18.63
2022-11-17T23:08:48.467Z,19.70
2022-11-17T23:11:36.051Z,21.83
2022-11-17T23:14:04.305Z,19.07
2022-11-17T23:16:32.221Z,17.77
2022-11-17T23:18:58.833Z,19.33
2022-11-17T23:21:25.299Z,16.40
2022-11-17T23:23:53.202Z,19.50
2022-11-17T23:26:19.869Z,26.33
2022-11-17T23:28:46.429Z,19.23
2022-11-17T23:31:15.364Z,18.87
2022-11-17T23:33:45.043Z,20.43
2022-11-17T23:36:20.371Z,19.47
2022-11-17T23:38:48.618Z,20.83
2022-11-17T23:41:18.660Z,17.23
2022-11-17T23:43:45.529Z,19.83
2022-11-17T23:46:16.412Z,18.03
2022-11-17T23:48:43.846Z,32.50
2022-11-17T23:51:14.706Z,21.93
2022-11-17T23:53:41.687Z,56.30
2022-11-17T23:56:09.573Z,26.43
2022-11-17T23:58:36.245Z,34.77
